Sea Thames — V2BV1 — position and weather

sailwx.info

Track history (hours):
 
Tides and Currents Weather Stations Pressure Air Temp Water Temp Dewpoint Dewpoint Depression Visibility Wind Speed Wind Dir Waves Ship Positions

Sea Thames

Last reported at 2016-Sep-24 22:29 UTC. Time now 2016-Sep-24 22:39 UTC.
Position N 51°54' E 004°19'.

Length 87 m; draft 3.2 m.

Type: Cargo ship. MMSI: 304933000.

Date/timePositionNaut miles runAvg speedWind from/ knotsBaromVisibWave heightAir tempDewpointWater temp
2016-Sep-24 22:29N 51°54' E 004°19'0 0.0
2016-Sep-24 21:33N 51°54' E 004°19'0 0.0
2016-Sep-24 19:31N 51°54' E 004°19'0 0.0
2016-Sep-24 18:28N 51°54' E 004°19'0 0.0
2016-Sep-24 17:31N 51°54' E 004°19'0 0.0
2016-Sep-24 16:30N 51°54' E 004°19'0 0.0
2016-Sep-24 14:31N 51°54' E 004°19'0 0.0
2016-Sep-24 12:31N 51°54' E 004°19'0 0.0
2016-Sep-24 10:33N 51°54' E 004°19'0 0.0
2016-Sep-24 09:32N 51°54' E 004°19'22 3.7
2016-Sep-24 03:33N 51°59' E 003°44'24 8.1
2016-Sep-24 00:33N 51°52' E 003°07'42 8.3
2016-Sep-23 19:33N 51°50' E 001°59'19 9.4
2016-Sep-23 17:33N 51°49' E 001°29'9 9.4
2016-Sep-23 16:33N 51°43' E 001°17'8 8.0
2016-Sep-23 15:33N 51°40' E 001°05'11 5.5
2016-Sep-23 13:32N 51°37' E 000°48'0 0.0
2016-Sep-23 09:31N 51°37' E 000°48'0 0.0
2016-Sep-23 06:33N 51°37' E 000°48'0 0.0
2016-Sep-23 04:31N 51°37' E 000°48'0 0.0
2016-Sep-23 03:31N 51°37' E 000°48'0 0.0
2016-Sep-23 02:32N 51°37' E 000°48'0 0.0
2016-Sep-23 01:29N 51°37' E 000°48'0 0.0
2016-Sep-23 00:26N 51°37' E 000°48'0 0.0
2016-Sep-22 23:31N 51°37' E 000°48'0 0.0
2016-Sep-22 20:32N 51°37' E 000°48'0 0.0
2016-Sep-22 12:33N 51°37' E 000°48'0 0.0
2016-Sep-22 04:32N 51°37' E 000°48'0 0.0
2016-Sep-22 03:33N 51°37' E 000°48'0 0.0
2016-Sep-22 00:32N 51°37' E 000°48'0 0.0
2016-Sep-21 23:32N 51°37' E 000°48'0 0.0
2016-Sep-21 22:33N 51°37' E 000°48'0 0.0
2016-Sep-21 19:33N 51°37' E 000°48'0 0.0
2016-Sep-21 16:31N 51°37' E 000°48'33 4.7
2016-Sep-21 09:33N 51°51' E 001°35'8 8.1
2016-Sep-21 08:33N 51°51' E 001°48'166 7.5
2016-Sep-20 10:33N 53°37' E 005°18'14 6.8
2016-Sep-20 08:33N 53°41' E 005°40'7 6.9
2016-Sep-20 07:33N 53°43' E 005°51'7 7.2
2016-Sep-20 06:33N 53°46' E 006°03'37 9.2
2016-Sep-20 02:33N 53°55' E 007°03'23 7.6
2016-Sep-19 23:32N 53°56' E 007°42'29 7.4
2016-Sep-19 19:33N 53°40' E 008°23'1010.4
2016-Sep-19 18:33N 53°32' E 008°34'11 5.3
2016-Sep-19 16:33N 53°21' E 008°30'0 0.0
2016-Sep-19 14:31N 53°21' E 008°30'0 0.0
2016-Sep-19 13:33N 53°21' E 008°30'0 0.0
2016-Sep-19 12:32N 53°21' E 008°30'0 0.0
2016-Sep-19 11:32N 53°21' E 008°30'0 0.0
2016-Sep-19 09:32N 53°21' E 008°30'0 0.0
2016-Sep-19 07:31N 53°21' E 008°30'0 0.0
2016-Sep-19 06:32N 53°21' E 008°30'0 0.0
2016-Sep-19 03:33N 53°21' E 008°30'0 0.0
2016-Sep-19 02:26N 53°21' E 008°30'0 0.0
2016-Sep-19 00:27N 53°21' E 008°30'0 0.0
2016-Sep-18 19:31N 53°21' E 008°30'0 0.0
2016-Sep-18 15:31N 53°21' E 008°30'0 0.0
2016-Sep-18 14:27N 53°21' E 008°30'0 0.0
2016-Sep-18 10:31N 53°21' E 008°30'0 0.0
2016-Sep-18 09:32N 53°21' E 008°30'0 0.0
2016-Sep-18 02:33N 53°21' E 008°30'0 0.0
2016-Sep-18 01:28N 53°21' E 008°30'0 0.0
2016-Sep-18 00:31N 53°21' E 008°30'0 0.0
2016-Sep-17 22:28N 53°21' E 008°30'0 0.0
2016-Sep-17 21:32N 53°21' E 008°30'0 0.0
2016-Sep-17 20:28N 53°21' E 008°30'0 0.0
2016-Sep-17 19:08N 53°21' E 008°30'0 0.0
2016-Sep-17 13:28N 53°21' E 008°30'0 0.0
2016-Sep-17 12:30N 53°21' E 008°30'15 7.8
2016-Sep-17 10:33N 53°36' E 008°30'1110.4
2016-Sep-17 09:33N 53°43' E 008°16'9 9.1
2016-Sep-17 08:33N 53°50' E 008°05'9 9.0
2016-Sep-17 07:33N 53°52' E 007°51'18 8.9
2016-Sep-17 05:33N 53°52' E 007°20'9 8.7
2016-Sep-17 04:33N 53°50' E 007°06'33 8.2
2016-Sep-17 00:33N 53°42' E 006°12'84 9.3
2016-Sep-16 15:33N 52°54' E 004°18'52 2.7
2016-Sep-15 20:15N 52°08' E 003°38'13 1.6
2016-Sep-15 12:16N 52°12' E 003°19'6 8.7
2016-Sep-15 11:33N 52°16' E 003°11'68 9.8
2016-Sep-15 04:33N 52°60' E 001°45'1010.1
2016-Sep-15 03:33N 53°06' E 001°32'18 9.0
2016-Sep-15 01:31N 53°17' E 001°07'  
Track history (hours):
 
Tides and Currents Weather Stations Pressure Air Temp Water Temp Dewpoint Dewpoint Depression Visibility Wind Speed Wind Dir Waves Ship Positions

Sea Thames

Last reported at 2016-Sep-24 22:29 UTC. Time now 2016-Sep-24 22:39 UTC.
Position N 51°54' E 004°19'.

Length 87 m; draft 3.2 m.

Type: Cargo ship. MMSI: 304933000.

Date/timePositionNaut miles runAvg speedWind from/ knotsBaromVisibWave heightAir tempDewpointWater temp
2016-Sep-24 22:29N 51°54' E 004°19'0 0.0
2016-Sep-24 21:33N 51°54' E 004°19'0 0.0
2016-Sep-24 19:31N 51°54' E 004°19'0 0.0
2016-Sep-24 18:28N 51°54' E 004°19'0 0.0
2016-Sep-24 17:31N 51°54' E 004°19'0 0.0
2016-Sep-24 16:30N 51°54' E 004°19'0 0.0
2016-Sep-24 14:31N 51°54' E 004°19'0 0.0
2016-Sep-24 12:31N 51°54' E 004°19'0 0.0
2016-Sep-24 10:33N 51°54' E 004°19'0 0.0
2016-Sep-24 09:32N 51°54' E 004°19'22 3.7
2016-Sep-24 03:33N 51°59' E 003°44'24 8.1
2016-Sep-24 00:33N 51°52' E 003°07'42 8.3
2016-Sep-23 19:33N 51°50' E 001°59'19 9.4
2016-Sep-23 17:33N 51°49' E 001°29'9 9.4
2016-Sep-23 16:33N 51°43' E 001°17'8 8.0
2016-Sep-23 15:33N 51°40' E 001°05'11 5.5
2016-Sep-23 13:32N 51°37' E 000°48'0 0.0
2016-Sep-23 09:31N 51°37' E 000°48'0 0.0
2016-Sep-23 06:33N 51°37' E 000°48'0 0.0
2016-Sep-23 04:31N 51°37' E 000°48'0 0.0
2016-Sep-23 03:31N 51°37' E 000°48'0 0.0
2016-Sep-23 02:32N 51°37' E 000°48'0 0.0
2016-Sep-23 01:29N 51°37' E 000°48'0 0.0
2016-Sep-23 00:26N 51°37' E 000°48'0 0.0
2016-Sep-22 23:31N 51°37' E 000°48'0 0.0
2016-Sep-22 20:32N 51°37' E 000°48'0 0.0
2016-Sep-22 12:33N 51°37' E 000°48'0 0.0
2016-Sep-22 04:32N 51°37' E 000°48'0 0.0
2016-Sep-22 03:33N 51°37' E 000°48'0 0.0
2016-Sep-22 00:32N 51°37' E 000°48'0 0.0
2016-Sep-21 23:32N 51°37' E 000°48'0 0.0
2016-Sep-21 22:33N 51°37' E 000°48'0 0.0
2016-Sep-21 19:33N 51°37' E 000°48'0 0.0
2016-Sep-21 16:31N 51°37' E 000°48'33 4.7
2016-Sep-21 09:33N 51°51' E 001°35'8 8.1
2016-Sep-21 08:33N 51°51' E 001°48'166 7.5
2016-Sep-20 10:33N 53°37' E 005°18'14 6.8
2016-Sep-20 08:33N 53°41' E 005°40'7 6.9
2016-Sep-20 07:33N 53°43' E 005°51'7 7.2
2016-Sep-20 06:33N 53°46' E 006°03'37 9.2
2016-Sep-20 02:33N 53°55' E 007°03'23 7.6
2016-Sep-19 23:32N 53°56' E 007°42'29 7.4
2016-Sep-19 19:33N 53°40' E 008°23'1010.4
2016-Sep-19 18:33N 53°32' E 008°34'11 5.3
2016-Sep-19 16:33N 53°21' E 008°30'0 0.0
2016-Sep-19 14:31N 53°21' E 008°30'0 0.0
2016-Sep-19 13:33N 53°21' E 008°30'0 0.0
2016-Sep-19 12:32N 53°21' E 008°30'0 0.0
2016-Sep-19 11:32N 53°21' E 008°30'0 0.0
2016-Sep-19 09:32N 53°21' E 008°30'0 0.0
2016-Sep-19 07:31N 53°21' E 008°30'0 0.0
2016-Sep-19 06:32N 53°21' E 008°30'0 0.0
2016-Sep-19 03:33N 53°21' E 008°30'0 0.0
2016-Sep-19 02:26N 53°21' E 008°30'0 0.0
2016-Sep-19 00:27N 53°21' E 008°30'0 0.0
2016-Sep-18 19:31N 53°21' E 008°30'0 0.0
2016-Sep-18 15:31N 53°21' E 008°30'0 0.0
2016-Sep-18 14:27N 53°21' E 008°30'0 0.0
2016-Sep-18 10:31N 53°21' E 008°30'0 0.0
2016-Sep-18 09:32N 53°21' E 008°30'0 0.0
2016-Sep-18 02:33N 53°21' E 008°30'0 0.0
2016-Sep-18 01:28N 53°21' E 008°30'0 0.0
2016-Sep-18 00:31N 53°21' E 008°30'0 0.0
2016-Sep-17 22:28N 53°21' E 008°30'0 0.0
2016-Sep-17 21:32N 53°21' E 008°30'0 0.0
2016-Sep-17 20:28N 53°21' E 008°30'0 0.0
2016-Sep-17 19:08N 53°21' E 008°30'0 0.0
2016-Sep-17 13:28N 53°21' E 008°30'0 0.0
2016-Sep-17 12:30N 53°21' E 008°30'15 7.8
2016-Sep-17 10:33N 53°36' E 008°30'1110.4
2016-Sep-17 09:33N 53°43' E 008°16'9 9.1
2016-Sep-17 08:33N 53°50' E 008°05'9 9.0
2016-Sep-17 07:33N 53°52' E 007°51'18 8.9
2016-Sep-17 05:33N 53°52' E 007°20'9 8.7
2016-Sep-17 04:33N 53°50' E 007°06'33 8.2
2016-Sep-17 00:33N 53°42' E 006°12'84 9.3
2016-Sep-16 15:33N 52°54' E 004°18'52 2.7
2016-Sep-15 20:15N 52°08' E 003°38'13 1.6
2016-Sep-15 12:16N 52°12' E 003°19'6 8.7
2016-Sep-15 11:33N 52°16' E 003°11'68 9.8
2016-Sep-15 04:33N 52°60' E 001°45'1010.1
2016-Sep-15 03:33N 53°06' E 001°32'18 9.0
2016-Sep-15 01:31N 53°17' E 001°07'  

Dump ship's entire track history